Vattmanville, Texas
Current Conditions -  °F | °C
As of 8:56 PM on Sunday 21 Dec 2014 (Local Time) from KNQI Reporting Station
Overcast Overcast  
Wind Chill: 16°   Ceiling: 900
Heat Index: 16°   Visibility: 10mi
Dew Point: 15°   Wind: 3mph
Humidity: 93%   Direction: 150°SSE
Pressure: 29.92"   Gusts: NA
Location:  27.3193°N, 97.8839°W
Report Text: KNQI 220256Z AUTO 15003KT 10SM OVC009 16/15 A2992 RMK AO2 SLP128 T01610150 58003
Loading
Personal Weather Stations






























Interactive Weather Map New forecast layout! Learn more

10-Day Weather Forecast

Advertisements
Track Severe Weather on mobile